sensor_id;sensor_type;location;lat;lon;timestamp;temperature;humidity
4677;DHT22;2352;48.180;11.478;2022-12-29T00:01:42;8.00;82.70
4677;DHT22;2352;48.180;11.478;2022-12-29T00:04:46;8.00;82.00
4677;DHT22;2352;48.180;11.478;2022-12-29T00:07:49;8.00;82.20
4677;DHT22;2352;48.180;11.478;2022-12-29T00:10:54;8.00;81.90
4677;DHT22;2352;48.180;11.478;2022-12-29T00:13:57;7.90;82.40
4677;DHT22;2352;48.180;11.478;2022-12-29T00:17:25;8.00;82.60
4677;DHT22;2352;48.180;11.478;2022-12-29T00:20:29;8.10;82.30
4677;DHT22;2352;48.180;11.478;2022-12-29T00:23:49;8.10;81.90
4677;DHT22;2352;48.180;11.478;2022-12-29T00:27:25;8.10;81.40
4677;DHT22;2352;48.180;11.478;2022-12-29T00:30:46;8.00;81.30
4677;DHT22;2352;48.180;11.478;2022-12-29T00:34:09;8.10;81.90
4677;DHT22;2352;48.180;11.478;2022-12-29T00:37:47;8.10;81.20
4677;DHT22;2352;48.180;11.478;2022-12-29T00:41:08;8.00;81.20
4677;DHT22;2352;48.180;11.478;2022-12-29T00:44:24;7.90;81.50
4677;DHT22;2352;48.180;11.478;2022-12-29T00:47:27;8.00;81.70
4677;DHT22;2352;48.180;11.478;2022-12-29T00:50:30;8.00;81.40
4677;DHT22;2352;48.180;11.478;2022-12-29T00:53:34;8.00;80.60
4677;DHT22;2352;48.180;11.478;2022-12-29T00:56:37;8.00;81.00
4677;DHT22;2352;48.180;11.478;2022-12-29T00:59:41;8.10;81.00
4677;DHT22;2352;48.180;11.478;2022-12-29T01:02:44;8.10;81.10
4677;DHT22;2352;48.180;11.478;2022-12-29T01:05:47;8.10;81.30
4677;DHT22;2352;48.180;11.478;2022-12-29T01:08:52;8.10;80.60
4677;DHT22;2352;48.180;11.478;2022-12-29T01:12:10;8.00;80.80
4677;DHT22;2352;48.180;11.478;2022-12-29T01:15:14;8.10;80.70
4677;DHT22;2352;48.180;11.478;2022-12-29T01:18:19;8.20;80.90
4677;DHT22;2352;48.180;11.478;2022-12-29T01:21:22;8.20;80.40
4677;DHT22;2352;48.180;11.478;2022-12-29T01:24:27;8.20;81.00
4677;DHT22;2352;48.180;11.478;2022-12-29T01:27:30;8.20;81.30
4677;DHT22;2352;48.180;11.478;2022-12-29T01:30:33;8.20;81.10
4677;DHT22;2352;48.180;11.478;2022-12-29T01:33:37;8.20;80.40
4677;DHT22;2352;48.180;11.478;2022-12-29T01:36:40;8.20;80.60
4677;DHT22;2352;48.180;11.478;2022-12-29T01:39:44;8.20;80.70
4677;DHT22;2352;48.180;11.478;2022-12-29T01:42:47;8.20;81.00
4677;DHT22;2352;48.180;11.478;2022-12-29T01:45:51;8.20;80.90
4677;DHT22;2352;48.180;11.478;2022-12-29T01:49:02;8.30;81.10
4677;DHT22;2352;48.180;11.478;2022-12-29T01:52:08;8.20;81.20
4677;DHT22;2352;48.180;11.478;2022-12-29T01:55:12;8.20;80.80
4677;DHT22;2352;48.180;11.478;2022-12-29T01:58:18;8.20;81.00
4677;DHT22;2352;48.180;11.478;2022-12-29T02:01:22;8.10;80.70
4677;DHT22;2352;48.180;11.478;2022-12-29T02:04:27;8.10;80.30
4677;DHT22;2352;48.180;11.478;2022-12-29T02:07:32;8.10;80.50
4677;DHT22;2352;48.180;11.478;2022-12-29T02:10:36;8.20;80.50
4677;DHT22;2352;48.180;11.478;2022-12-29T02:13:40;8.20;80.30
4677;DHT22;2352;48.180;11.478;2022-12-29T02:16:56;8.20;79.90
4677;DHT22;2352;48.180;11.478;2022-12-29T02:24:01;8.20;80.30
4677;DHT22;2352;48.180;11.478;2022-12-29T02:30:48;8.10;79.50
4677;DHT22;2352;48.180;11.478;2022-12-29T02:34:01;8.10;80.20
4677;DHT22;2352;48.180;11.478;2022-12-29T02:37:15;8.10;79.80
4677;DHT22;2352;48.180;11.478;2022-12-29T02:40:25;8.20;79.30
4677;DHT22;2352;48.180;11.478;2022-12-29T02:43:35;8.10;78.60
4677;DHT22;2352;48.180;11.478;2022-12-29T02:46:44;8.10;79.40
4677;DHT22;2352;48.180;11.478;2022-12-29T02:49:56;8.10;78.70
4677;DHT22;2352;48.180;11.478;2022-12-29T02:53:02;8.10;79.30
4677;DHT22;2352;48.180;11.478;2022-12-29T02:56:08;8.10;78.90
4677;DHT22;2352;48.180;11.478;2022-12-29T02:59:10;8.10;79.00
4677;DHT22;2352;48.180;11.478;2022-12-29T03:02:43;8.10;79.00
4677;DHT22;2352;48.180;11.478;2022-12-29T03:06:00;8.10;77.90
4677;DHT22;2352;48.180;11.478;2022-12-29T03:09:13;8.10;78.00
4677;DHT22;2352;48.180;11.478;2022-12-29T03:12:25;8.00;79.00
4677;DHT22;2352;48.180;11.478;2022-12-29T03:15:55;8.10;78.70
4677;DHT22;2352;48.180;11.478;2022-12-29T03:19:15;8.10;78.40
4677;DHT22;2352;48.180;11.478;2022-12-29T03:22:22;8.10;78.90
4677;DHT22;2352;48.180;11.478;2022-12-29T03:25:36;8.20;78.50
4677;DHT22;2352;48.180;11.478;2022-12-29T03:28:44;8.20;79.00
4677;DHT22;2352;48.180;11.478;2022-12-29T03:31:49;8.20;78.80
4677;DHT22;2352;48.180;11.478;2022-12-29T03:34:56;8.20;78.00
4677;DHT22;2352;48.180;11.478;2022-12-29T03:38:07;8.30;78.40
4677;DHT22;2352;48.180;11.478;2022-12-29T03:41:15;8.30;77.40
4677;DHT22;2352;48.180;11.478;2022-12-29T03:44:20;8.30;78.10
4677;DHT22;2352;48.180;11.478;2022-12-29T03:47:24;8.30;77.80
4677;DHT22;2352;48.180;11.478;2022-12-29T03:50:28;8.30;77.20
4677;DHT22;2352;48.180;11.478;2022-12-29T03:53:31;8.30;78.20
4677;DHT22;2352;48.180;11.478;2022-12-29T03:56:34;8.30;77.30
4677;DHT22;2352;48.180;11.478;2022-12-29T03:59:37;8.40;78.00
4677;DHT22;2352;48.180;11.478;2022-12-29T04:02:39;8.30;78.10
4677;DHT22;2352;48.180;11.478;2022-12-29T04:05:44;8.30;77.80
4677;DHT22;2352;48.180;11.478;2022-12-29T04:08:47;8.40;77.60
4677;DHT22;2352;48.180;11.478;2022-12-29T04:11:50;8.40;77.40
4677;DHT22;2352;48.180;11.478;2022-12-29T04:14:53;8.40;76.80
4677;DHT22;2352;48.180;11.478;2022-12-29T04:17:55;8.40;77.10
4677;DHT22;2352;48.180;11.478;2022-12-29T04:21:00;8.40;76.90
4677;DHT22;2352;48.180;11.478;2022-12-29T04:24:04;8.50;76.20
4677;DHT22;2352;48.180;11.478;2022-12-29T04:27:08;8.50;76.80
4677;DHT22;2352;48.180;11.478;2022-12-29T04:30:11;8.50;76.70
4677;DHT22;2352;48.180;11.478;2022-12-29T04:33:15;8.50;76.30
4677;DHT22;2352;48.180;11.478;2022-12-29T04:36:21;8.50;77.00
4677;DHT22;2352;48.180;11.478;2022-12-29T04:39:30;8.50;76.10
4677;DHT22;2352;48.180;11.478;2022-12-29T04:42:35;8.50;76.40
4677;DHT22;2352;48.180;11.478;2022-12-29T04:45:38;8.60;76.80
4677;DHT22;2352;48.180;11.478;2022-12-29T04:48:41;8.60;77.30
4677;DHT22;2352;48.180;11.478;2022-12-29T04:51:45;8.60;77.50
4677;DHT22;2352;48.180;11.478;2022-12-29T04:54:48;8.60;76.90
4677;DHT22;2352;48.180;11.478;2022-12-29T04:57:51;8.60;77.10
4677;DHT22;2352;48.180;11.478;2022-12-29T05:00:54;8.60;77.20
4677;DHT22;2352;48.180;11.478;2022-12-29T05:03:57;8.60;76.90
4677;DHT22;2352;48.180;11.478;2022-12-29T05:07:01;8.70;77.50
4677;DHT22;2352;48.180;11.478;2022-12-29T05:10:05;8.70;76.70
4677;DHT22;2352;48.180;11.478;2022-12-29T05:13:09;8.80;77.90
4677;DHT22;2352;48.180;11.478;2022-12-29T05:16:12;8.80;77.00
4677;DHT22;2352;48.180;11.478;2022-12-29T05:19:15;8.80;76.90
4677;DHT22;2352;48.180;11.478;2022-12-29T05:22:24;8.80;76.80
4677;DHT22;2352;48.180;11.478;2022-12-29T05:25:27;8.80;76.20
4677;DHT22;2352;48.180;11.478;2022-12-29T05:28:29;8.80;76.80
4677;DHT22;2352;48.180;11.478;2022-12-29T05:31:32;8.90;76.70
4677;DHT22;2352;48.180;11.478;2022-12-29T05:34:37;8.90;76.50
4677;DHT22;2352;48.180;11.478;2022-12-29T05:37:41;8.90;77.00
4677;DHT22;2352;48.180;11.478;2022-12-29T05:40:44;8.90;75.60
4677;DHT22;2352;48.180;11.478;2022-12-29T05:43:47;8.90;76.90
4677;DHT22;2352;48.180;11.478;2022-12-29T05:46:50;8.90;76.50
4677;DHT22;2352;48.180;11.478;2022-12-29T05:49:53;8.90;75.00
4677;DHT22;2352;48.180;11.478;2022-12-29T05:52:57;8.90;76.00
4677;DHT22;2352;48.180;11.478;2022-12-29T05:56:00;8.90;75.60
4677;DHT22;2352;48.180;11.478;2022-12-29T05:59:03;8.90;76.40
4677;DHT22;2352;48.180;11.478;2022-12-29T06:02:06;8.90;75.70
4677;DHT22;2352;48.180;11.478;2022-12-29T06:05:09;8.90;75.70
4677;DHT22;2352;48.180;11.478;2022-12-29T06:08:14;9.00;75.60
4677;DHT22;2352;48.180;11.478;2022-12-29T06:11:17;8.90;75.10
4677;DHT22;2352;48.180;11.478;2022-12-29T06:14:19;9.00;75.80
4677;DHT22;2352;48.180;11.478;2022-12-29T06:17:22;9.00;75.20
4677;DHT22;2352;48.180;11.478;2022-12-29T06:20:25;9.00;74.60
4677;DHT22;2352;48.180;11.478;2022-12-29T06:23:30;9.00;74.50
4677;DHT22;2352;48.180;11.478;2022-12-29T06:26:33;9.00;75.50
4677;DHT22;2352;48.180;11.478;2022-12-29T06:29:36;9.10;76.00
4677;DHT22;2352;48.180;11.478;2022-12-29T06:32:41;9.10;74.80
4677;DHT22;2352;48.180;11.478;2022-12-29T06:35:45;9.10;74.90
4677;DHT22;2352;48.180;11.478;2022-12-29T06:38:49;9.10;75.80
4677;DHT22;2352;48.180;11.478;2022-12-29T06:41:54;9.20;75.80
4677;DHT22;2352;48.180;11.478;2022-12-29T06:44:57;9.20;75.60
4677;DHT22;2352;48.180;11.478;2022-12-29T06:48:02;9.20;76.00
4677;DHT22;2352;48.180;11.478;2022-12-29T06:51:05;9.20;76.00
4677;DHT22;2352;48.180;11.478;2022-12-29T06:54:09;9.20;76.10
4677;DHT22;2352;48.180;11.478;2022-12-29T06:57:12;9.20;74.80
4677;DHT22;2352;48.180;11.478;2022-12-29T07:00:16;9.20;75.70
4677;DHT22;2352;48.180;11.478;2022-12-29T07:03:23;9.20;75.40
4677;DHT22;2352;48.180;11.478;2022-12-29T07:06:27;9.20;75.10
4677;DHT22;2352;48.180;11.478;2022-12-29T07:09:31;9.30;75.30
4677;DHT22;2352;48.180;11.478;2022-12-29T07:12:34;9.30;74.70
4677;DHT22;2352;48.180;11.478;2022-12-29T07:15:37;9.30;75.20
4677;DHT22;2352;48.180;11.478;2022-12-29T07:18:40;9.20;75.10
4677;DHT22;2352;48.180;11.478;2022-12-29T07:21:43;9.20;75.10
4677;DHT22;2352;48.180;11.478;2022-12-29T07:24:47;9.30;75.90
4677;DHT22;2352;48.180;11.478;2022-12-29T07:27:50;9.30;74.90
4677;DHT22;2352;48.180;11.478;2022-12-29T07:30:53;9.30;74.70
4677;DHT22;2352;48.180;11.478;2022-12-29T07:33:55;9.30;75.00
4677;DHT22;2352;48.180;11.478;2022-12-29T07:36:58;9.30;75.30
4677;DHT22;2352;48.180;11.478;2022-12-29T07:40:03;9.40;74.10
4677;DHT22;2352;48.180;11.478;2022-12-29T07:43:06;9.40;74.40
4677;DHT22;2352;48.180;11.478;2022-12-29T07:46:09;9.40;74.40
4677;DHT22;2352;48.180;11.478;2022-12-29T07:49:32;9.30;74.90
4677;DHT22;2352;48.180;11.478;2022-12-29T07:52:35;9.40;74.50
4677;DHT22;2352;48.180;11.478;2022-12-29T07:55:39;9.40;74.50
4677;DHT22;2352;48.180;11.478;2022-12-29T07:58:42;9.40;75.10
4677;DHT22;2352;48.180;11.478;2022-12-29T08:01:45;9.40;74.80
4677;DHT22;2352;48.180;11.478;2022-12-29T08:04:48;9.40;75.30
4677;DHT22;2352;48.180;11.478;2022-12-29T08:07:51;9.40;75.00
4677;DHT22;2352;48.180;11.478;2022-12-29T08:10:55;9.40;74.10
4677;DHT22;2352;48.180;11.478;2022-12-29T08:13:58;9.40;75.30
4677;DHT22;2352;48.180;11.478;2022-12-29T08:17:01;9.40;74.60
4677;DHT22;2352;48.180;11.478;2022-12-29T08:20:04;9.30;73.10
4677;DHT22;2352;48.180;11.478;2022-12-29T08:23:07;9.30;72.80
4677;DHT22;2352;48.180;11.478;2022-12-29T08:26:12;9.40;73.40
4677;DHT22;2352;48.180;11.478;2022-12-29T08:29:14;9.40;73.00
4677;DHT22;2352;48.180;11.478;2022-12-29T08:32:18;9.40;71.50
4677;DHT22;2352;48.180;11.478;2022-12-29T08:35:21;9.50;72.50
4677;DHT22;2352;48.180;11.478;2022-12-29T08:38:24;9.50;71.80
4677;DHT22;2352;48.180;11.478;2022-12-29T08:41:28;9.60;71.70
4677;DHT22;2352;48.180;11.478;2022-12-29T08:44:31;9.60;70.90
4677;DHT22;2352;48.180;11.478;2022-12-29T08:47:34;9.70;71.30
4677;DHT22;2352;48.180;11.478;2022-12-29T08:50:37;9.70;70.10
4677;DHT22;2352;48.180;11.478;2022-12-29T08:53:40;9.80;70.30
4677;DHT22;2352;48.180;11.478;2022-12-29T08:56:44;9.80;70.90
4677;DHT22;2352;48.180;11.478;2022-12-29T08:59:47;9.80;70.30
4677;DHT22;2352;48.180;11.478;2022-12-29T09:02:50;9.90;70.30
4677;DHT22;2352;48.180;11.478;2022-12-29T09:05:54;10.00;69.60
4677;DHT22;2352;48.180;11.478;2022-12-29T09:08:57;10.00;70.10
4677;DHT22;2352;48.180;11.478;2022-12-29T09:12:01;10.10;69.40
4677;DHT22;2352;48.180;11.478;2022-12-29T09:15:05;10.20;69.00
4677;DHT22;2352;48.180;11.478;2022-12-29T09:18:09;10.40;67.90
4677;DHT22;2352;48.180;11.478;2022-12-29T09:21:19;10.50;67.30
4677;DHT22;2352;48.180;11.478;2022-12-29T09:24:22;10.50;66.30
4677;DHT22;2352;48.180;11.478;2022-12-29T09:27:27;10.60;67.20
4677;DHT22;2352;48.180;11.478;2022-12-29T09:30:31;10.80;66.30
4677;DHT22;2352;48.180;11.478;2022-12-29T09:33:34;10.90;66.00
4677;DHT22;2352;48.180;11.478;2022-12-29T09:36:37;11.00;64.10
4677;DHT22;2352;48.180;11.478;2022-12-29T09:39:40;11.10;65.00
4677;DHT22;2352;48.180;11.478;2022-12-29T09:42:50;11.20;65.80
4677;DHT22;2352;48.180;11.478;2022-12-29T09:46:04;11.30;66.20
4677;DHT22;2352;48.180;11.478;2022-12-29T09:49:21;11.30;65.20
4677;DHT22;2352;48.180;11.478;2022-12-29T09:52:30;11.20;66.20
4677;DHT22;2352;48.180;11.478;2022-12-29T09:55:37;11.20;65.20
4677;DHT22;2352;48.180;11.478;2022-12-29T09:58:47;11.20;65.60
4677;DHT22;2352;48.180;11.478;2022-12-29T10:01:56;11.30;65.50
4677;DHT22;2352;48.180;11.478;2022-12-29T10:05:01;11.30;65.30
4677;DHT22;2352;48.180;11.478;2022-12-29T10:08:16;11.30;64.50
4677;DHT22;2352;48.180;11.478;2022-12-29T10:11:33;11.30;64.20
4677;DHT22;2352;48.180;11.478;2022-12-29T10:14:47;11.30;64.80
4677;DHT22;2352;48.180;11.478;2022-12-29T10:17:58;11.40;65.70
4677;DHT22;2352;48.180;11.478;2022-12-29T10:21:08;11.30;64.60
4677;DHT22;2352;48.180;11.478;2022-12-29T10:24:16;11.40;62.60
4677;DHT22;2352;48.180;11.478;2022-12-29T10:27:21;11.30;62.50
4677;DHT22;2352;48.180;11.478;2022-12-29T10:30:26;11.30;63.00
4677;DHT22;2352;48.180;11.478;2022-12-29T10:33:34;11.40;63.90
4677;DHT22;2352;48.180;11.478;2022-12-29T10:36:39;11.40;64.10
4677;DHT22;2352;48.180;11.478;2022-12-29T10:39:45;11.50;64.80
4677;DHT22;2352;48.180;11.478;2022-12-29T10:42:52;11.50;63.30
4677;DHT22;2352;48.180;11.478;2022-12-29T10:46:02;11.60;63.40
4677;DHT22;2352;48.180;11.478;2022-12-29T10:49:06;11.60;63.30
4677;DHT22;2352;48.180;11.478;2022-12-29T10:52:09;11.60;63.00
4677;DHT22;2352;48.180;11.478;2022-12-29T10:55:16;11.60;63.50
4677;DHT22;2352;48.180;11.478;2022-12-29T10:58:21;11.70;64.60
4677;DHT22;2352;48.180;11.478;2022-12-29T11:01:30;11.80;65.20
4677;DHT22;2352;48.180;11.478;2022-12-29T11:04:47;11.80;64.50
4677;DHT22;2352;48.180;11.478;2022-12-29T11:07:56;11.90;66.20
4677;DHT22;2352;48.180;11.478;2022-12-29T11:11:02;11.90;64.20
4677;DHT22;2352;48.180;11.478;2022-12-29T11:14:12;11.90;65.10
4677;DHT22;2352;48.180;11.478;2022-12-29T11:17:17;12.00;65.00
4677;DHT22;2352;48.180;11.478;2022-12-29T11:20:32;12.20;65.30
4677;DHT22;2352;48.180;11.478;2022-12-29T11:23:37;12.40;64.50
4677;DHT22;2352;48.180;11.478;2022-12-29T11:26:43;12.50;63.30
4677;DHT22;2352;48.180;11.478;2022-12-29T11:29:46;12.60;62.60
4677;DHT22;2352;48.180;11.478;2022-12-29T11:32:53;12.70;60.10
4677;DHT22;2352;48.180;11.478;2022-12-29T11:35:58;12.70;61.80
4677;DHT22;2352;48.180;11.478;2022-12-29T11:39:01;12.90;62.30
4677;DHT22;2352;48.180;11.478;2022-12-29T11:42:15;13.00;60.90
4677;DHT22;2352;48.180;11.478;2022-12-29T11:45:21;13.10;60.30
4677;DHT22;2352;48.180;11.478;2022-12-29T11:48:29;13.10;60.40
4677;DHT22;2352;48.180;11.478;2022-12-29T11:51:38;13.30;60.60
4677;DHT22;2352;48.180;11.478;2022-12-29T11:54:44;13.50;60.20
4677;DHT22;2352;48.180;11.478;2022-12-29T11:57:48;13.60;59.40
4677;DHT22;2352;48.180;11.478;2022-12-29T12:00:52;13.60;58.50
4677;DHT22;2352;48.180;11.478;2022-12-29T12:04:01;13.70;58.10
4677;DHT22;2352;48.180;11.478;2022-12-29T12:07:10;13.80;57.90
4677;DHT22;2352;48.180;11.478;2022-12-29T12:10:20;13.70;57.60
4677;DHT22;2352;48.180;11.478;2022-12-29T12:13:29;13.70;57.20
4677;DHT22;2352;48.180;11.478;2022-12-29T12:16:37;13.80;58.00
4677;DHT22;2352;48.180;11.478;2022-12-29T12:19:47;13.70;57.50
4677;DHT22;2352;48.180;11.478;2022-12-29T12:22:58;13.80;58.00
4677;DHT22;2352;48.180;11.478;2022-12-29T12:26:11;13.80;57.80
4677;DHT22;2352;48.180;11.478;2022-12-29T12:29:20;13.90;57.90
4677;DHT22;2352;48.180;11.478;2022-12-29T12:32:29;13.90;57.20
4677;DHT22;2352;48.180;11.478;2022-12-29T12:35:45;14.00;58.50
4677;DHT22;2352;48.180;11.478;2022-12-29T12:38:55;14.10;57.90
4677;DHT22;2352;48.180;11.478;2022-12-29T12:42:08;14.10;58.60
4677;DHT22;2352;48.180;11.478;2022-12-29T12:45:30;14.10;58.30
4677;DHT22;2352;48.180;11.478;2022-12-29T12:49:05;14.00;59.00
4677;DHT22;2352;48.180;11.478;2022-12-29T12:52:19;14.10;59.20
4677;DHT22;2352;48.180;11.478;2022-12-29T12:55:38;14.10;60.20
4677;DHT22;2352;48.180;11.478;2022-12-29T12:58:49;14.10;60.20
4677;DHT22;2352;48.180;11.478;2022-12-29T13:02:00;14.00;60.30
4677;DHT22;2352;48.180;11.478;2022-12-29T13:05:31;14.10;60.60
4677;DHT22;2352;48.180;11.478;2022-12-29T13:09:12;14.10;60.90
4677;DHT22;2352;48.180;11.478;2022-12-29T13:12:25;14.00;61.50
4677;DHT22;2352;48.180;11.478;2022-12-29T13:15:41;14.00;61.20
4677;DHT22;2352;48.180;11.478;2022-12-29T13:18:52;14.00;61.50
4677;DHT22;2352;48.180;11.478;2022-12-29T13:22:06;14.10;61.30
4677;DHT22;2352;48.180;11.478;2022-12-29T13:25:26;14.10;62.10
4677;DHT22;2352;48.180;11.478;2022-12-29T13:28:32;14.10;61.70
4677;DHT22;2352;48.180;11.478;2022-12-29T13:31:43;14.10;61.50
4677;DHT22;2352;48.180;11.478;2022-12-29T13:34:53;14.10;61.90
4677;DHT22;2352;48.180;11.478;2022-12-29T13:38:03;14.00;61.90
4677;DHT22;2352;48.180;11.478;2022-12-29T13:41:11;14.10;63.60
4677;DHT22;2352;48.180;11.478;2022-12-29T13:44:19;14.00;63.90
4677;DHT22;2352;48.180;11.478;2022-12-29T13:47:28;14.00;64.30
4677;DHT22;2352;48.180;11.478;2022-12-29T13:50:36;13.80;65.40
4677;DHT22;2352;48.180;11.478;2022-12-29T13:53:58;13.80;66.60
4677;DHT22;2352;48.180;11.478;2022-12-29T13:57:10;13.80;67.00
4677;DHT22;2352;48.180;11.478;2022-12-29T14:00:16;13.80;67.90
4677;DHT22;2352;48.180;11.478;2022-12-29T14:03:41;13.80;68.30
4677;DHT22;2352;48.180;11.478;2022-12-29T14:06:48;13.60;69.30
4677;DHT22;2352;48.180;11.478;2022-12-29T14:10:00;13.60;69.70
4677;DHT22;2352;48.180;11.478;2022-12-29T14:13:10;13.70;69.90
4677;DHT22;2352;48.180;11.478;2022-12-29T14:16:30;13.80;70.30
4677;DHT22;2352;48.180;11.478;2022-12-29T14:19:36;13.80;70.00
4677;DHT22;2352;48.180;11.478;2022-12-29T14:22:55;13.80;69.50
4677;DHT22;2352;48.180;11.478;2022-12-29T14:26:09;13.70;69.90
4677;DHT22;2352;48.180;11.478;2022-12-29T14:29:44;13.70;69.90
4677;DHT22;2352;48.180;11.478;2022-12-29T14:33:10;13.70;70.20
4677;DHT22;2352;48.180;11.478;2022-12-29T14:36:23;13.70;70.30
4677;DHT22;2352;48.180;11.478;2022-12-29T14:39:35;13.50;71.40
4677;DHT22;2352;48.180;11.478;2022-12-29T14:42:39;13.70;70.70
4677;DHT22;2352;48.180;11.478;2022-12-29T14:45:52;13.70;70.80
4677;DHT22;2352;48.180;11.478;2022-12-29T14:48:58;13.70;71.30
4677;DHT22;2352;48.180;11.478;2022-12-29T14:52:13;13.80;71.00
4677;DHT22;2352;48.180;11.478;2022-12-29T14:55:36;13.70;70.60
4677;DHT22;2352;48.180;11.478;2022-12-29T14:58:46;13.70;70.90
4677;DHT22;2352;48.180;11.478;2022-12-29T15:01:53;13.70;71.20
4677;DHT22;2352;48.180;11.478;2022-12-29T15:04:59;13.70;71.30
4677;DHT22;2352;48.180;11.478;2022-12-29T15:08:04;13.70;71.30
4677;DHT22;2352;48.180;11.478;2022-12-29T15:11:13;13.70;71.60
4677;DHT22;2352;48.180;11.478;2022-12-29T15:14:31;13.70;71.60
4677;DHT22;2352;48.180;11.478;2022-12-29T15:17:36;13.60;71.40
4677;DHT22;2352;48.180;11.478;2022-12-29T15:20:42;13.60;71.60
4677;DHT22;2352;48.180;11.478;2022-12-29T15:23:45;13.60;72.20
4677;DHT22;2352;48.180;11.478;2022-12-29T15:26:51;13.60;72.20
4677;DHT22;2352;48.180;11.478;2022-12-29T15:29:58;13.60;71.90
4677;DHT22;2352;48.180;11.478;2022-12-29T15:33:17;13.50;71.70
4677;DHT22;2352;48.180;11.478;2022-12-29T15:36:22;13.40;71.80
4677;DHT22;2352;48.180;11.478;2022-12-29T15:39:29;13.40;72.20
4677;DHT22;2352;48.180;11.478;2022-12-29T15:42:47;13.40;71.90
4677;DHT22;2352;48.180;11.478;2022-12-29T15:45:54;13.40;71.90
4677;DHT22;2352;48.180;11.478;2022-12-29T15:48:59;13.40;72.20
4677;DHT22;2352;48.180;11.478;2022-12-29T15:52:06;13.40;72.40
4677;DHT22;2352;48.180;11.478;2022-12-29T15:55:19;13.40;72.90
4677;DHT22;2352;48.180;11.478;2022-12-29T15:58:24;13.40;72.80
4677;DHT22;2352;48.180;11.478;2022-12-29T16:01:30;13.30;73.30
4677;DHT22;2352;48.180;11.478;2022-12-29T16:04:35;13.30;73.70
4677;DHT22;2352;48.180;11.478;2022-12-29T16:08:00;13.30;73.90
4677;DHT22;2352;48.180;11.478;2022-12-29T16:11:05;13.30;74.40
4677;DHT22;2352;48.180;11.478;2022-12-29T16:14:13;13.20;74.80
4677;DHT22;2352;48.180;11.478;2022-12-29T16:17:21;13.20;75.10
4677;DHT22;2352;48.180;11.478;2022-12-29T16:20:34;13.10;75.30
4677;DHT22;2352;48.180;11.478;2022-12-29T16:23:39;13.20;75.60
4677;DHT22;2352;48.180;11.478;2022-12-29T16:26:47;13.20;75.20
4677;DHT22;2352;48.180;11.478;2022-12-29T16:29:53;13.20;75.30
4677;DHT22;2352;48.180;11.478;2022-12-29T16:32:58;13.10;76.00
4677;DHT22;2352;48.180;11.478;2022-12-29T16:36:25;13.10;75.80
4677;DHT22;2352;48.180;11.478;2022-12-29T16:39:31;13.10;76.00
4677;DHT22;2352;48.180;11.478;2022-12-29T16:42:43;13.10;76.00
4677;DHT22;2352;48.180;11.478;2022-12-29T16:46:21;13.10;76.80
4677;DHT22;2352;48.180;11.478;2022-12-29T16:49:28;13.10;76.80
4677;DHT22;2352;48.180;11.478;2022-12-29T16:52:34;13.10;77.00
4677;DHT22;2352;48.180;11.478;2022-12-29T16:55:37;13.10;77.00
4677;DHT22;2352;48.180;11.478;2022-12-29T16:58:40;13.10;77.30
4677;DHT22;2352;48.180;11.478;2022-12-29T17:01:49;13.10;77.60
4677;DHT22;2352;48.180;11.478;2022-12-29T17:04:52;13.10;77.50
4677;DHT22;2352;48.180;11.478;2022-12-29T17:07:56;13.10;77.60
4677;DHT22;2352;48.180;11.478;2022-12-29T17:11:02;13.20;77.60
4677;DHT22;2352;48.180;11.478;2022-12-29T17:14:32;13.20;78.00
4677;DHT22;2352;48.180;11.478;2022-12-29T17:17:39;13.20;78.00
4677;DHT22;2352;48.180;11.478;2022-12-29T17:20:43;13.20;78.00
4677;DHT22;2352;48.180;11.478;2022-12-29T17:23:47;13.20;78.00
4677;DHT22;2352;48.180;11.478;2022-12-29T17:26:52;13.10;78.30
4677;DHT22;2352;48.180;11.478;2022-12-29T17:29:58;13.20;79.30
4677;DHT22;2352;48.180;11.478;2022-12-29T17:33:04;13.10;78.70
4677;DHT22;2352;48.180;11.478;2022-12-29T17:36:10;13.10;78.60
4677;DHT22;2352;48.180;11.478;2022-12-29T17:39:15;13.10;79.00
4677;DHT22;2352;48.180;11.478;2022-12-29T17:42:18;13.10;78.90
4677;DHT22;2352;48.180;11.478;2022-12-29T17:45:24;13.10;79.10
4677;DHT22;2352;48.180;11.478;2022-12-29T17:48:27;13.10;79.80
4677;DHT22;2352;48.180;11.478;2022-12-29T17:51:31;13.10;80.70
4677;DHT22;2352;48.180;11.478;2022-12-29T17:54:45;13.00;79.50
4677;DHT22;2352;48.180;11.478;2022-12-29T17:57:50;13.00;79.70
4677;DHT22;2352;48.180;11.478;2022-12-29T18:00:55;13.00;79.60
4677;DHT22;2352;48.180;11.478;2022-12-29T18:03:58;13.00;79.80
4677;DHT22;2352;48.180;11.478;2022-12-29T18:07:04;13.00;80.70
4677;DHT22;2352;48.180;11.478;2022-12-29T18:10:09;13.00;81.10
4677;DHT22;2352;48.180;11.478;2022-12-29T18:13:19;13.00;80.40
4677;DHT22;2352;48.180;11.478;2022-12-29T18:16:23;13.00;78.60
4677;DHT22;2352;48.180;11.478;2022-12-29T18:19:25;13.00;78.50
4677;DHT22;2352;48.180;11.478;2022-12-29T18:22:36;12.90;78.20
4677;DHT22;2352;48.180;11.478;2022-12-29T18:25:44;12.90;78.70
4677;DHT22;2352;48.180;11.478;2022-12-29T18:28:48;12.90;78.40
4677;DHT22;2352;48.180;11.478;2022-12-29T18:31:51;12.80;78.60
4677;DHT22;2352;48.180;11.478;2022-12-29T18:34:54;12.80;78.60
4677;DHT22;2352;48.180;11.478;2022-12-29T18:37:57;12.80;78.50
4677;DHT22;2352;48.180;11.478;2022-12-29T18:41:01;12.80;78.50
4677;DHT22;2352;48.180;11.478;2022-12-29T18:44:10;12.80;79.00
4677;DHT22;2352;48.180;11.478;2022-12-29T18:47:13;12.80;78.50
4677;DHT22;2352;48.180;11.478;2022-12-29T18:50:16;12.80;78.70
4677;DHT22;2352;48.180;11.478;2022-12-29T18:53:21;12.70;79.40
4677;DHT22;2352;48.180;11.478;2022-12-29T18:56:25;12.80;87.10
4677;DHT22;2352;48.180;11.478;2022-12-29T18:59:28;12.80;83.10
4677;DHT22;2352;48.180;11.478;2022-12-29T19:02:31;12.60;79.30
4677;DHT22;2352;48.180;11.478;2022-12-29T19:05:36;12.60;78.70
4677;DHT22;2352;48.180;11.478;2022-12-29T19:08:39;12.50;78.30
4677;DHT22;2352;48.180;11.478;2022-12-29T19:11:44;12.50;79.10
4677;DHT22;2352;48.180;11.478;2022-12-29T19:14:46;12.60;79.60
4677;DHT22;2352;48.180;11.478;2022-12-29T19:17:50;12.60;79.50
4677;DHT22;2352;48.180;11.478;2022-12-29T19:21:14;12.60;78.80
4677;DHT22;2352;48.180;11.478;2022-12-29T19:24:17;12.60;78.60
4677;DHT22;2352;48.180;11.478;2022-12-29T19:27:21;12.50;77.50
4677;DHT22;2352;48.180;11.478;2022-12-29T19:30:24;12.50;77.80
4677;DHT22;2352;48.180;11.478;2022-12-29T19:33:27;12.40;78.10
4677;DHT22;2352;48.180;11.478;2022-12-29T19:36:31;12.40;77.80
4677;DHT22;2352;48.180;11.478;2022-12-29T19:39:34;12.40;78.30
4677;DHT22;2352;48.180;11.478;2022-12-29T19:42:38;12.40;78.20
4677;DHT22;2352;48.180;11.478;2022-12-29T19:45:42;12.40;78.40
4677;DHT22;2352;48.180;11.478;2022-12-29T19:48:45;12.50;79.30
4677;DHT22;2352;48.180;11.478;2022-12-29T19:51:48;12.40;79.70
4677;DHT22;2352;48.180;11.478;2022-12-29T19:54:52;12.40;79.40
4677;DHT22;2352;48.180;11.478;2022-12-29T19:57:56;12.30;78.40
4677;DHT22;2352;48.180;11.478;2022-12-29T20:01:04;12.30;78.60
4677;DHT22;2352;48.180;11.478;2022-12-29T20:04:08;12.30;78.90
4677;DHT22;2352;48.180;11.478;2022-12-29T20:07:10;12.20;79.00
4677;DHT22;2352;48.180;11.478;2022-12-29T20:10:18;12.20;81.00
4677;DHT22;2352;48.180;11.478;2022-12-29T20:13:22;12.20;82.90
4677;DHT22;2352;48.180;11.478;2022-12-29T20:16:25;12.30;84.00
4677;DHT22;2352;48.180;11.478;2022-12-29T20:19:30;12.30;84.70